Time;durP1;ratioP1;P1;durP2;ratioP2;P2;SDS_P1;SDS_P2;PMS_P1;PMS_P2;Temp;Humidity;BMP_temperature;BMP_pressure;BME280_temperature;BME280_humidity;BME280_pressure;Samples;Min_cycle;Max_cycle;Signal;HPM_P1;HPM_P2
2021/09/03 00:05:45;;;;;;;12.1;7.6;;;;;;;11.9;100;99257.33;;;;
2021/09/03 00:15:44;;;;;;;8.8;6.3;;;;;;;11.99;100;99269.02;;;;
2021/09/03 00:25:45;;;;;;;10;7.8;;;;;;;11.92;100;99257.81;;;;
2021/09/03 00:35:43;;;;;;;11.6;7.6;;;;;;;11.79;100;99251.31;;;;
2021/09/03 00:45:42;;;;;;;10.7;6.7;;;;;;;11.65;100;99253.17;;;;
2021/09/03 00:55:42;;;;;;;11.6;7.7;;;;;;;11.63;100;99251.88;;;;
2021/09/03 01:05:41;;;;;;;8.5;6.7;;;;;;;11.51;100;99233.45;;;;
2021/09/03 01:15:40;;;;;;;12.4;7.7;;;;;;;11.39;100;99225.81;;;;
2021/09/03 01:25:39;;;;;;;7.6;6.8;;;;;;;11.56;100;99227.94;;;;
2021/09/03 01:35:38;;;;;;;8.4;6.7;;;;;;;11.69;100;99219.08;;;;
2021/09/03 01:45:38;;;;;;;9.6;6.4;;;;;;;11.59;100;99213.87;;;;
2021/09/03 01:55:37;;;;;;;9.4;6.6;;;;;;;11.63;100;99212.15;;;;
2021/09/03 02:05:36;;;;;;;8.9;5.8;;;;;;;11.47;100;99194.64;;;;
2021/09/03 02:15:35;;;;;;;11.2;8;;;;;;;11.35;100;99184.32;;;;
2021/09/03 02:25:35;;;;;;;11.6;7.6;;;;;;;11.21;100;99170;;;;
2021/09/03 02:35:34;;;;;;;7.2;5.8;;;;;;;10.95;100;99164.27;;;;
2021/09/03 02:45:33;;;;;;;10.1;7.9;;;;;;;10.86;100;99154.45;;;;
2021/09/03 02:55:32;;;;;;;9.6;6.5;;;;;;;10.77;100;99143.53;;;;
2021/09/03 03:05:31;;;;;;;12.1;7.9;;;;;;;10.7;100;99150.39;;;;
2021/09/03 03:15:30;;;;;;;11.6;7.1;;;;;;;10.55;100;99144.14;;;;
2021/09/03 03:25:29;;;;;;;9.6;7.8;;;;;;;10.35;100;99146.34;;;;
2021/09/03 03:35:33;;;;;;;11.3;7.7;;;;;;;10.27;100;99138.94;;;;
2021/09/03 03:45:29;;;;;;;10.3;7;;;;;;;10.46;100;99145.1;;;;
2021/09/03 03:55:29;;;;;;;10.3;7.4;;;;;;;10.81;100;99136.45;;;;
2021/09/03 04:05:25;;;;;;;12.1;7.7;;;;;;;11.14;100;99139.14;;;;
2021/09/03 04:15:24;;;;;;;15.6;7.8;;;;;;;11.36;100;99141.95;;;;
2021/09/03 04:25:23;;;;;;;11.4;7.6;;;;;;;11.6;100;99127.16;;;;
2021/09/03 04:35:23;;;;;;;11.1;7.3;;;;;;;11.84;100;99128.86;;;;
2021/09/03 04:45:22;;;;;;;13.7;8.6;;;;;;;11.98;100;99132.34;;;;
2021/09/03 04:55:21;;;;;;;11.7;8.5;;;;;;;12.18;100;99137.33;;;;
2021/09/03 05:05:21;;;;;;;10.4;8.5;;;;;;;12.43;100;99128.63;;;;
2021/09/03 05:15:20;;;;;;;11.4;10;;;;;;;12.7;100;99130.44;;;;
2021/09/03 05:25:19;;;;;;;14;10.5;;;;;;;13.06;100;99125.71;;;;
2021/09/03 05:35:19;;;;;;;15.5;12.7;;;;;;;12.97;100;99119.47;;;;
2021/09/03 05:45:18;;;;;;;14.8;10.9;;;;;;;13.3;100;99122.67;;;;
2021/09/03 05:55:18;;;;;;;14.9;12.2;;;;;;;13.69;100;99112.94;;;;
2021/09/03 06:05:17;;;;;;;16.5;9.9;;;;;;;13.89;100;99121.27;;;;
2021/09/03 06:15:17;;;;;;;12.2;9.6;;;;;;;14.13;100;99121.63;;;;
2021/09/03 06:25:17;;;;;;;9.3;7.2;;;;;;;14.61;100;99116.07;;;;
2021/09/03 06:35:17;;;;;;;10.7;9.2;;;;;;;15.01;100;99126.71;;;;
2021/09/03 06:45:16;;;;;;;14.2;9.8;;;;;;;15.28;100;99112.73;;;;
2021/09/03 06:55:15;;;;;;;18;9.6;;;;;;;15.55;100;99112.31;;;;
2021/09/03 07:05:15;;;;;;;13.2;7.6;;;;;;;16.01;100;99122.3;;;;
2021/09/03 07:15:15;;;;;;;12.3;7.9;;;;;;;16.33;100;99103.67;;;;
2021/09/03 07:25:15;;;;;;;14.2;8.9;;;;;;;16.74;100;99103.66;;;;
2021/09/03 07:35:16;;;;;;;10.1;6.1;;;;;;;16.95;100;99090.78;;;;
2021/09/03 07:45:14;;;;;;;11.4;8.8;;;;;;;17.14;100;99095.72;;;;
2021/09/03 07:55:14;;;;;;;10.1;6.4;;;;;;;17.55;100;99094.72;;;;
2021/09/03 08:05:14;;;;;;;11.8;8;;;;;;;17.93;100;99084.27;;;;
2021/09/03 08:15:14;;;;;;;9.4;6.6;;;;;;;18.2;100;99080;;;;
2021/09/03 08:25:14;;;;;;;8.9;5.8;;;;;;;18.23;100;99075.78;;;;
2021/09/03 08:35:14;;;;;;;7.2;5;;;;;;;18.7;100;99081.44;;;;
2021/09/03 08:45:15;;;;;;;11.5;6.9;;;;;;;18.78;100;99067.61;;;;
2021/09/03 08:55:15;;;;;;;10.5;6.5;;;;;;;18.85;100;99062.34;;;;
2021/09/03 09:05:15;;;;;;;11.8;5.5;;;;;;;19.18;100;99053.03;;;;
2021/09/03 09:15:17;;;;;;;7.5;4.4;;;;;;;19.42;100;99050.14;;;;
2021/09/03 09:25:15;;;;;;;6.9;4.8;;;;;;;19.75;100;99045.05;;;;
2021/09/03 09:35:16;;;;;;;6.8;4.5;;;;;;;19.97;100;99027.17;;;;
2021/09/03 09:45:16;;;;;;;6.5;4.1;;;;;;;20.13;100;99018.91;;;;
2021/09/03 09:55:16;;;;;;;10.2;4.7;;;;;;;19.87;100;99020.33;;;;
2021/09/03 10:05:17;;;;;;;8.1;3.9;;;;;;;20.45;100;99017.61;;;;
2021/09/03 10:15:17;;;;;;;6.3;3.7;;;;;;;20.72;100;99011.08;;;;
2021/09/03 10:25:18;;;;;;;8.5;4.8;;;;;;;21.49;100;99005.33;;;;
2021/09/03 10:35:18;;;;;;;6.6;3.8;;;;;;;22.02;100;99001.41;;;;
2021/09/03 10:45:21;;;;;;;9.4;5.1;;;;;;;21.61;100;98982.39;;;;
2021/09/03 10:55:19;;;;;;;9.5;4.5;;;;;;;22.04;100;98974.36;;;;
2021/09/03 11:05:20;;;;;;;10.9;4.7;;;;;;;21.61;100;98961.24;;;;
2021/09/03 11:15:20;;;;;;;6.8;4;;;;;;;21.51;100;98948.97;;;;
2021/09/03 11:25:21;;;;;;;8.1;4.5;;;;;;;21.86;100;98943.16;;;;
2021/09/03 11:35:23;;;;;;;7.9;4.1;;;;;;;21.3;100;98934.16;;;;
2021/09/03 11:45:22;;;;;;;7.9;4.2;;;;;;;21.28;100;98922.75;;;;
2021/09/03 11:55:22;;;;;;;7.2;4.7;;;;;;;21.65;100;98922.88;;;;
2021/09/03 12:05:23;;;;;;;7.2;3.4;;;;;;;21.7;100;98915.11;;;;
2021/09/03 12:15:23;;;;;;;7.6;3.4;;;;;;;22.06;100;98908.91;;;;
2021/09/03 12:25:24;;;;;;;7.2;4.8;;;;;;;22.32;100;98910.73;;;;
2021/09/03 12:35:24;;;;;;;5.8;4.1;;;;;;;22.15;100;98903.11;;;;
2021/09/03 12:45:27;;;;;;;7.6;4.4;;;;;;;22.41;98.96094;98882.98;;;;
2021/09/03 12:55:26;;;;;;;6;3.4;;;;;;;22.54;98.33105;98876.03;;;;
2021/09/03 13:05:26;;;;;;;6;3.7;;;;;;;22.11;96.62598;98858.36;;;;
2021/09/03 13:15:35;;;;;;;7.2;3.9;;;;;;;22.6;100;98852.52;;;;
2021/09/03 13:25:31;;;;;;;8.2;4.8;;;;;;;22.37;97.4082;98843.7;;;;
2021/09/03 13:35:31;;;;;;;8.1;3.5;;;;;;;22.32;97.82422;98831.1;;;;
2021/09/03 13:45:37;;;;;;;9.2;5.4;;;;;;;22.12;98.47168;98827;;;;
2021/09/03 13:55:35;;;;;;;11;5.1;;;;;;;23.21;99.33105;98807.8;;;;
2021/09/03 14:05:31;;;;;;;6.9;3.8;;;;;;;23.02;93.78809;98811.63;;;;
2021/09/03 14:15:31;;;;;;;9;4.8;;;;;;;22.92;93.48828;98795.86;;;;
2021/09/03 14:25:31;;;;;;;7.6;3.8;;;;;;;23.48;92.38867;98778.07;;;;
2021/09/03 14:35:31;;;;;;;9.5;4.3;;;;;;;23.38;83.40723;98773.3;;;;
2021/09/03 14:45:32;;;;;;;12.4;5.1;;;;;;;23.43;83.05957;98762.72;;;;
2021/09/03 14:55:33;;;;;;;9.2;4.2;;;;;;;23.66;85.22168;98742.35;;;;
2021/09/03 15:05:33;;;;;;;7.5;4.9;;;;;;;23.92;79.82617;98740.02;;;;
2021/09/03 15:15:34;;;;;;;12.1;4.9;;;;;;;25.57;75.01855;98740.11;;;;
2021/09/03 15:25:35;;;;;;;7.6;5;;;;;;;25.3;75.52246;98728.8;;;;
2021/09/03 15:35:41;;;;;;;10;5;;;;;;;24.66;78.81641;98714.41;;;;
2021/09/03 15:45:37;;;;;;;9.1;5.3;;;;;;;26.23;73.24219;98715.19;;;;
2021/09/03 15:55:38;;;;;;;6.8;3.6;;;;;;;25.58;75.50879;98696.73;;;;
2021/09/03 16:05:39;;;;;;;7.4;4.7;;;;;;;25.54;75.72656;98691.23;;;;
2021/09/03 16:15:40;;;;;;;7;4.5;;;;;;;25.44;75.60352;98687.3;;;;
2021/09/03 16:25:42;;;;;;;7.8;4.2;;;;;;;25.12;78.46484;98672.13;;;;
2021/09/03 16:35:42;;;;;;;7.8;5.1;;;;;;;23.65;86.69141;98666.47;;;;
2021/09/03 16:45:43;;;;;;;8;4.2;;;;;;;22.36;93.46582;98656.16;;;;
2021/09/03 16:55:44;;;;;;;9.3;5.5;;;;;;;21.44;96.98828;98654.65;;;;
2021/09/03 17:05:44;;;;;;;8;4.8;;;;;;;20.52;100;98648.08;;;;
2021/09/03 17:15:45;;;;;;;9.8;6.2;;;;;;;19.61;100;98642.02;;;;
2021/09/03 17:25:45;;;;;;;10.2;5.7;;;;;;;18.82;100;98653.41;;;;
2021/09/03 17:35:45;;;;;;;9.5;5.6;;;;;;;18.08;100;98657.25;;;;
2021/09/03 17:45:45;;;;;;;7;5.6;;;;;;;17.44;100;98652.94;;;;
2021/09/03 17:55:45;;;;;;;8.5;5.8;;;;;;;16.96;100;98662.17;;;;
2021/09/03 18:05:45;;;;;;;10.5;8;;;;;;;16.64;100;98665.92;;;;
2021/09/03 18:15:45;;;;;;;11.5;8;;;;;;;16.37;100;98677.52;;;;
2021/09/03 18:25:44;;;;;;;9.6;6.1;;;;;;;16.25;100;98682.97;;;;
2021/09/03 18:35:44;;;;;;;12.7;6.9;;;;;;;16.11;100;98678.68;;;;
2021/09/03 18:45:44;;;;;;;9.5;6.8;;;;;;;15.91;100;98678.8;;;;
2021/09/03 18:55:43;;;;;;;9.3;7;;;;;;;15.86;100;98682.53;;;;
2021/09/03 19:05:43;;;;;;;10.2;7.5;;;;;;;15.66;100;98677.99;;;;
2021/09/03 19:15:43;;;;;;;13.6;7.9;;;;;;;15.56;100;98681.16;;;;
2021/09/03 19:25:42;;;;;;;12;7.7;;;;;;;15.43;100;98676.81;;;;
2021/09/03 19:35:42;;;;;;;10.8;8.5;;;;;;;15.27;100;98678.59;;;;
2021/09/03 19:45:41;;;;;;;11.8;9;;;;;;;15.02;100;98675.8;;;;
2021/09/03 19:55:42;;;;;;;10.3;7.5;;;;;;;14.77;100;98671.4;;;;
2021/09/03 20:05:40;;;;;;;12.1;6.8;;;;;;;14.55;100;98682.58;;;;
2021/09/03 20:15:40;;;;;;;18.1;7.8;;;;;;;14.28;100;98670.3;;;;
2021/09/03 20:25:44;;;;;;;12.6;8.4;;;;;;;14.05;100;98667.12;;;;
2021/09/03 20:35:38;;;;;;;12.1;7.2;;;;;;;13.88;100;98671.83;;;;
2021/09/03 20:45:38;;;;;;;7.7;5.6;;;;;;;13.73;100;98686.72;;;;
2021/09/03 20:55:37;;;;;;;11.7;7.3;;;;;;;13.54;100;98680.88;;;;
2021/09/03 21:05:37;;;;;;;9.8;7.2;;;;;;;13.35;100;98683.19;;;;
2021/09/03 21:15:36;;;;;;;8.7;6.4;;;;;;;13.24;100;98684.64;;;;
2021/09/03 21:25:35;;;;;;;12.6;6.3;;;;;;;13.08;100;98681.63;;;;
2021/09/03 21:35:34;;;;;;;14.4;8.8;;;;;;;13.09;100;98680.53;;;;
2021/09/03 21:45:33;;;;;;;10.6;7.5;;;;;;;13.24;100;98677.32;;;;
2021/09/03 21:55:33;;;;;;;12.5;8.4;;;;;;;13.37;100;98683.64;;;;
2021/09/03 22:05:32;;;;;;;10.1;7.3;;;;;;;13.34;100;98687;;;;
2021/09/03 22:15:36;;;;;;;10.9;7.3;;;;;;;13.42;100;98688.9;;;;
2021/09/03 22:25:32;;;;;;;13.5;8;;;;;;;13.34;100;98687;;;;
2021/09/03 22:35:32;;;;;;;9.2;7.3;;;;;;;13.49;100;98698.13;;;;
2021/09/03 22:45:36;;;;;;;11.5;8.5;;;;;;;13.49;100;98694.61;;;;
2021/09/03 22:55:32;;;;;;;11;9.3;;;;;;;13.58;100;98689.95;;;;
2021/09/03 23:05:32;;;;;;;13.3;9;;;;;;;13.49;100;98679.17;;;;
2021/09/03 23:15:32;;;;;;;9.7;7.7;;;;;;;13.48;100;98669.45;;;;
2021/09/03 23:25:27;;;;;;;10.9;8.4;;;;;;;13.39;100;98670.59;;;;
2021/09/03 23:35:27;;;;;;;8.8;7.9;;;;;;;13.32;100;98683.84;;;;
2021/09/03 23:45:26;;;;;;;8.2;6;;;;;;;13.16;100;98671.91;;;;
2021/09/03 23:55:25;;;;;;;9.2;6.8;;;;;;;13.04;100;98670.66;;;;
